Skip to Main Content
SEARCH:
Location Air RH Dwp Precip Type Wind Speed Wind Gust Direction Pavement Temperature Date/Time
Hatem Bridge US 40 E/B 38 75 31 None 8 mph 9 mph N 38 - 38 12/18/2017 3:34:00 AM
I-270 at I-370 39 76 32 None Calm Calm N 41 - 42 12/18/2017 3:30:00 AM
I-270 at MD-109 38 90 35 None Calm Calm NW 39 - 41 12/18/2017 3:30:00 AM
I-495 at American Legion Bridge 39 82 34 None Calm Calm N 41 - 42 12/18/2017 3:30:00 AM
I-68 at Savage Mt 34 93 32 None Calm 9 mph W 35 - 36 12/18/2017 3:30:00 AM
I-68 at Sideling Hill 38 82 33 None Calm Calm NW 39 - 39 12/18/2017 3:30:00 AM
I-68 at US 219 33 97 32 None 6 mph 11 mph W 34 - 35 12/18/2017 3:30:00 AM
I-68 at WV Line 37 81 32 None Calm 7 mph SW 37 - 37 12/18/2017 3:30:00 AM
I-695 at I-83 38 75 31 None Calm 4 mph N 40 - 40 12/18/2017 3:30:00 AM
I-70 at Fred-Wash Co. 39 73 31 None Calm Calm E 39 - 40 12/18/2017 3:25:00 AM
I-70 at I-695 38 77 32 None Calm Calm SW 40 - 42 12/18/2017 3:30:00 AM
I-70 at I-81 36 81 31 None Calm 4 mph N - 12/18/2017 3:25:00 AM
I-70 at MD-27 38 85 34 None Calm Calm NE 40 - 41 12/18/2017 3:30:00 AM
I-70 at MD-32 37 84 33 None Calm Calm N 39 - 41 12/18/2017 3:30:00 AM
I-83 at MD-137 36 83 31 None Calm Calm NW 39 - 39 12/18/2017 3:30:00 AM
I-95 at I-695 NE 39 72 30 None Calm Calm N 39 - 40 12/18/2017 3:34:00 AM
I-95 at Patuxent River 39 82 34 None Calm 4 mph N 42 - 42 12/18/2017 3:30:00 AM
I-95 at Tydings Bridge 38 76 31 None Calm 8 mph N - 12/18/2017 3:30:00 AM
I-95/495 at I-295 47 59 34 None Calm Calm NW 42 - 44 12/18/2017 3:30:00 AM
I-97 at MD-100 38 82 33 None Calm Calm SW 40 - 41 12/18/2017 3:30:00 AM
I-97 at MD-32 37 83 32 None 8 mph 9 mph N 40 - 41 12/18/2017 3:30:00 AM
MD 20 at MD 21 37 87 33 None Calm Calm N 39 - 39 12/18/2017 3:25:00 AM
MD 231 at Patuxent River 39 90 37 None 5 mph 6 mph S 40 - 41 12/18/2017 3:30:00 AM
MD 260 at Cox Rd 39 87 36 None Calm Calm S 41 - 41 12/18/2017 3:25:00 AM
MD-135 at Salt Dome 32 100 32 None Calm 8 mph W 33 - 33 12/18/2017 3:30:00 AM
MD-140 at MD-97 36 79 30 None Calm Calm E 39 - 39 12/18/2017 3:30:00 AM
MD-200 EB at Bonifant Rd 38 80 33 None Calm Calm NW 38 - 39 12/18/2017 3:34:00 AM
MD-200 WB at Muncaster Mill Rd 37 81 32 None Calm Calm N 40 - 40 12/18/2017 3:34:00 AM
MD-213 at Sassafras River 37 93 35 None Calm Calm NE 39 - 39 12/18/2017 3:30:00 AM
MD-24 at Rock St Park 35 96 34 None Calm Calm N 34 - 34 12/18/2017 3:30:00 AM
MD-30 at PA Line 36 84 32 None Calm Calm E 38 - 38 12/18/2017 3:30:00 AM
MD-33 at Knapps Narrows Drawbridge 39 89 36 None Calm Calm SE 43 - 43 12/18/2017 3:30:00 AM
MD-344 at MD-224 39 83 34 None Calm Calm N 40 - 40 12/18/2017 3:25:00 AM
MD-4 at Patuxent River 42 86 39 None - - No Data Available 42 - 43 12/18/2017 3:30:00 AM
MD-404 at Choptank River 38 84 34 None Calm Calm E 40 - 41 12/18/2017 3:30:00 AM
MD-43 at MD-150 38 79 33 None Calm 5 mph N 39 - 40 12/18/2017 3:30:00 AM
MD-51 at Oldtown Salt Dome 34 89 31 None Calm Calm E 37 - 37 12/18/2017 3:30:00 AM
MD-64 at MD-418 35 84 31 None Calm Calm N 37 - 38 12/18/2017 3:25:00 AM
US 301 at MD 305 38 87 34 None Calm Calm E 40 - 41 12/18/2017 3:30:00 AM
US-1 at Baltimore / Harford Co. Line 34 90 31 None Calm Calm NW 34 - 36 12/18/2017 3:30:00 AM
US-1 at Conowingo Dam 38 82 33 None Calm Calm N - 12/18/2017 3:30:00 AM
US-13 at US-113 42 77 36 None Calm 4 mph W 44 - 44 12/18/2017 3:30:00 AM
US-13 at US-50 - - - No Data Available - - No Data Available -
US-15 at MD-140 36 76 29 None Calm Calm N 38 - 38 12/18/2017 3:30:00 AM
US-301 at MD-5 40 85 36 None Calm Calm N 42 - 42 12/18/2017 3:30:00 AM
US-301 at Potomac 44 73 36 None Calm Calm SE 41 - 42 12/18/2017 3:30:00 AM
US-301 on HWN Bridge - - - None - - No Data Available 41 - 41 12/18/2017 3:29:00 AM
US-340 at MD-180 36 82 31 None Calm Calm N 39 - 39 12/18/2017 3:30:00 AM
US-50 at Choptank 40 92 38 None Calm Calm SE 41 - 42 12/18/2017 3:30:00 AM
US-50 at I-95 48 58 34 None Calm Calm N 43 - 44 12/18/2017 3:30:00 AM
US-50 at MD-2 39 90 37 None Calm Calm NW 41 - 41 12/18/2017 3:30:00 AM
US-50 at MD-331 41 84 37 None Calm 5 mph S 41 - 45 12/18/2017 3:30:00 AM
US-50 at OC Drawbridge 42 86 39 None Calm 4 mph SW 43 - 43 12/18/2017 3:30:00 AM
US-50 at Table Rock Rd 32 100 32 None 4 mph 9 mph W 34 - 34 12/18/2017 3:30:00 AM
US-50 Kent Narrow Bridge 40 92 38 None Calm Calm SE 42 - 43 12/18/2017 3:30:00 AM
WPL Pier 31 40 81 35 None Calm Calm S 43 - 43 12/18/2017 3:34:00 AM
Location Air RH Dwp Precip Type Wind Speed Wind Gust Direction Pavement Temperature Date/Time